Time;durP1;ratioP1;P1;durP2;ratioP2;P2;SDS_P1;SDS_P2;PMS_P1;PMS_P2;Temp;Humidity;BMP_temperature;BMP_pressure;BME280_temperature;BME280_humidity;BME280_pressure;Samples;Min_cycle;Max_cycle;Signal;HPM_P1;HPM_P2
2023/08/19 00:00:59;;;;;;;20.40;18.50;;;23.60;99.90;;;;;;5065058;28;20623;-87
2023/08/19 00:03:26;;;;;;;21.17;18.95;;;23.70;99.90;;;;;;5054004;28;20646;-89
2023/08/19 00:05:52;;;;;;;20.95;18.75;;;23.70;99.90;;;;;;5039748;28;20055;-88
2023/08/19 00:08:19;;;;;;;20.98;18.98;;;23.70;99.90;;;;;;5051166;28;20396;-87
2023/08/19 00:10:45;;;;;;;22.55;20.35;;;23.50;99.90;;;;;;5039365;28;20036;-88
2023/08/19 00:13:10;;;;;;;21.17;19.20;;;23.40;99.90;;;;;;5055757;28;20044;-87
2023/08/19 00:15:36;;;;;;;21.90;19.77;;;23.60;99.90;;;;;;5023439;28;20078;-87
2023/08/19 00:18:02;;;;;;;22.20;19.98;;;23.70;99.90;;;;;;5027038;28;20123;-86
2023/08/19 00:20:28;;;;;;;20.65;18.55;;;23.70;99.90;;;;;;5022460;28;20048;-86
2023/08/19 00:22:58;;;;;;;22.13;20.02;;;23.50;99.90;;;;;;5057027;28;20423;-89
2023/08/19 00:25:27;;;;;;;22.08;19.88;;;23.50;99.90;;;;;;5056830;28;20060;-87
2023/08/19 00:27:53;;;;;;;21.35;19.23;;;23.30;99.90;;;;;;5068385;28;20064;-89
2023/08/19 00:30:19;;;;;;;20.88;18.98;;;23.40;99.90;;;;;;5035481;28;20123;-87
2023/08/19 00:32:47;;;;;;;21.25;19.23;;;23.70;99.90;;;;;;5065384;28;20045;-88
2023/08/19 00:35:13;;;;;;;22.17;19.50;;;23.30;99.90;;;;;;5043611;28;20039;-89
2023/08/19 00:37:39;;;;;;;20.00;18.05;;;23.60;99.90;;;;;;5050993;28;20037;-89
2023/08/19 00:40:05;;;;;;;21.98;19.65;;;23.40;99.90;;;;;;5057127;28;20393;-87
2023/08/19 00:42:31;;;;;;;21.80;19.70;;;23.50;99.90;;;;;;5055175;28;20116;-87
2023/08/19 00:44:57;;;;;;;20.13;18.17;;;23.40;99.90;;;;;;5034965;28;20036;-86
2023/08/19 00:47:25;;;;;;;21.05;18.85;;;23.40;99.90;;;;;;5068805;28;20063;-86
2023/08/19 00:49:51;;;;;;;22.08;19.73;;;23.50;99.90;;;;;;5072338;28;20040;-86
2023/08/19 00:52:18;;;;;;;19.85;18.02;;;23.50;99.90;;;;;;5063946;28;20037;-87
2023/08/19 00:54:44;;;;;;;20.77;18.67;;;23.30;99.90;;;;;;5065047;28;20045;-87
2023/08/19 00:57:11;;;;;;;20.77;18.00;;;23.40;99.90;;;;;;5039537;28;20081;-86
2023/08/19 00:59:37;;;;;;;21.55;19.40;;;23.70;99.90;;;;;;5050857;28;20039;-86
2023/08/19 01:02:03;;;;;;;21.08;18.88;;;23.60;99.90;;;;;;5051521;28;20029;-88
2023/08/19 01:04:29;;;;;;;20.88;18.88;;;23.50;99.90;;;;;;5048158;28;20096;-86
2023/08/19 01:07:33;;;;;;;21.63;19.63;;;23.30;99.90;;;;;;5072214;28;20052;-86
2023/08/19 01:10:07;;;;;;;20.90;18.77;;;23.60;99.90;;;;;;5071600;28;20040;-87
2023/08/19 01:12:44;;;;;;;21.48;18.83;;;23.60;99.90;;;;;;5075567;28;20020;-86
2023/08/19 01:15:25;;;;;;;22.05;19.88;;;23.70;99.90;;;;;;5067608;28;20095;-86
2023/08/19 01:17:52;;;;;;;20.70;18.58;;;23.30;99.90;;;;;;5075227;28;20072;-89
2023/08/19 01:20:19;;;;;;;20.10;18.00;;;23.20;99.90;;;;;;5039855;28;20032;-89
2023/08/19 01:22:55;;;;;;;22.75;20.63;;;23.50;99.90;;;;;;5015810;28;20036;-89
2023/08/19 01:25:22;;;;;;;22.45;20.25;;;23.30;99.90;;;;;;5056935;28;20032;-89
2023/08/19 01:27:48;;;;;;;20.25;18.25;;;23.50;99.90;;;;;;5028544;28;20051;-89
2023/08/19 01:30:14;;;;;;;19.35;17.55;;;23.30;99.90;;;;;;5047530;28;20721;-89
2023/08/19 01:32:42;;;;;;;20.17;18.17;;;23.50;99.90;;;;;;5054408;28;20040;-88
2023/08/19 01:35:09;;;;;;;20.42;18.42;;;23.50;99.90;;;;;;5056551;28;20122;-88
2023/08/19 01:38:02;;;;;;;21.05;18.85;;;23.30;99.90;;;;;;5033462;28;20040;-88
2023/08/19 01:40:27;;;;;;;19.88;17.70;;;23.50;99.90;;;;;;5056884;28;20070;-86
2023/08/19 01:42:55;;;;;;;21.42;19.42;;;23.30;99.90;;;;;;5057164;28;20032;-87
2023/08/19 01:45:22;;;;;;;21.42;18.50;;;23.40;99.90;;;;;;5036722;28;20032;-87
2023/08/19 01:47:54;;;;;;;22.90;20.38;;;23.50;99.90;;;;;;5064329;28;20039;-88
2023/08/19 01:50:20;;;;;;;24.27;21.65;;;23.10;99.90;;;;;;5057066;28;20047;-87
2023/08/19 01:52:46;;;;;;;20.50;18.45;;;23.30;99.90;;;;;;5023593;28;20045;-85
2023/08/19 01:55:12;;;;;;;22.90;20.48;;;23.20;99.90;;;;;;5040435;28;20044;-87
2023/08/19 01:57:38;;;;;;;20.75;18.75;;;;;;;;;;5035241;28;20472;-87
2023/08/19 02:00:05;;;;;;;20.75;18.73;;;23.30;99.90;;;;;;5030466;28;20560;-87
2023/08/19 02:02:31;;;;;;;20.67;18.58;;;23.50;99.90;;;;;;5054827;28;20097;-88
2023/08/19 02:04:56;;;;;;;21.85;19.75;;;23.30;99.90;;;;;;5039996;28;20035;-86
2023/08/19 02:07:22;;;;;;;21.05;18.90;;;23.10;99.90;;;;;;5034346;28;20075;-87
2023/08/19 02:09:48;;;;;;;21.88;19.73;;;23.20;99.90;;;;;;5030336;28;20040;-88
2023/08/19 02:12:13;;;;;;;19.85;17.80;;;23.20;99.90;;;;;;5019041;28;20047;-87
2023/08/19 02:14:39;;;;;;;20.20;18.20;;;23.50;99.90;;;;;;5067081;28;20048;-88
2023/08/19 02:17:05;;;;;;;21.17;19.05;;;23.30;99.90;;;;;;5050898;28;20086;-88
2023/08/19 02:19:31;;;;;;;21.40;19.15;;;23.10;99.90;;;;;;5058530;28;20281;-87
2023/08/19 02:21:56;;;;;;;20.13;18.23;;;23.30;99.90;;;;;;5076842;28;20044;-88
2023/08/19 02:24:22;;;;;;;22.45;20.27;;;23.40;99.90;;;;;;5056907;28;20079;-87
2023/08/19 02:26:48;;;;;;;21.90;19.48;;;23.50;99.90;;;;;;5033881;28;20106;-88
2023/08/19 02:29:14;;;;;;;20.27;18.30;;;23.50;99.90;;;;;;5049553;28;20094;-88
2023/08/19 02:31:40;;;;;;;21.25;19.20;;;23.30;99.90;;;;;;5060186;28;20070;-89
2023/08/19 02:34:06;;;;;;;22.90;19.15;;;23.10;99.90;;;;;;5059631;28;20140;-89
2023/08/19 02:36:32;;;;;;;21.20;19.10;;;23.20;99.90;;;;;;5060909;28;20119;-88
2023/08/19 02:38:58;;;;;;;21.75;19.65;;;23.10;99.90;;;;;;5040092;28;20066;-90
2023/08/19 02:41:24;;;;;;;23.15;20.77;;;23.20;99.90;;;;;;5055847;28;20488;-88
2023/08/19 02:43:50;;;;;;;22.05;19.90;;;23.30;99.90;;;;;;5044151;28;20429;-88
2023/08/19 02:46:16;;;;;;;21.95;19.77;;;23.20;99.90;;;;;;5071525;28;20075;-88
2023/08/19 02:48:42;;;;;;;20.80;18.58;;;23.50;99.90;;;;;;5074280;28;20071;-87
2023/08/19 02:51:08;;;;;;;21.63;19.38;;;23.40;99.90;;;;;;5035565;28;20040;-86
2023/08/19 02:53:34;;;;;;;20.92;18.83;;;23.20;99.90;;;;;;5055879;28;20392;-86
2023/08/19 02:55:59;;;;;;;22.50;20.20;;;23.20;99.90;;;;;;5070584;28;20036;-88
2023/08/19 02:58:27;;;;;;;21.67;19.48;;;23.00;99.90;;;;;;5044523;28;20117;-88
2023/08/19 03:00:52;;;;;;;21.83;19.80;;;23.40;99.90;;;;;;5046375;28;20127;-87
2023/08/19 03:03:18;;;;;;;21.52;19.27;;;23.10;99.90;;;;;;5069040;28;20071;-87
2023/08/19 03:05:44;;;;;;;20.05;18.13;;;23.40;99.90;;;;;;5055063;28;20040;-86
2023/08/19 03:08:10;;;;;;;21.70;19.63;;;23.40;99.90;;;;;;5043160;28;20044;-87
2023/08/19 03:10:38;;;;;;;19.50;17.20;;;23.20;99.90;;;;;;5067503;28;20483;-88
2023/08/19 03:13:04;;;;;;;22.27;19.98;;;23.30;99.90;;;;;;5057031;28;20544;-88
2023/08/19 03:15:31;;;;;;;23.45;21.10;;;23.20;99.90;;;;;;5067109;28;20059;-89
2023/08/19 03:17:57;;;;;;;23.13;20.73;;;22.90;99.90;;;;;;5068154;28;20047;-88
2023/08/19 03:20:22;;;;;;;21.45;19.30;;;23.30;99.90;;;;;;5077216;28;20044;-89
2023/08/19 03:22:51;;;;;;;22.00;19.65;;;23.50;99.90;;;;;;5077880;28;20519;-87
2023/08/19 03:25:23;;;;;;;22.35;20.15;;;22.90;99.90;;;;;;5053243;28;20079;-89
2023/08/19 03:27:48;;;;;;;22.13;19.83;;;23.30;99.90;;;;;;5042205;28;20100;-88
2023/08/19 03:30:14;;;;;;;27.85;23.13;;;23.00;99.90;;;;;;5059185;28;20427;-88
2023/08/19 03:32:46;;;;;;;23.45;20.92;;;23.00;99.90;;;;;;5051618;28;20561;-88
2023/08/19 03:35:12;;;;;;;23.00;20.73;;;23.40;99.90;;;;;;5041483;28;20111;-89
2023/08/19 03:37:38;;;;;;;22.90;20.52;;;23.30;99.90;;;;;;5022948;28;20134;-88
2023/08/19 03:40:04;;;;;;;22.05;19.75;;;23.40;99.90;;;;;;5041391;28;20063;-90
2023/08/19 03:42:30;;;;;;;22.15;19.83;;;23.60;99.90;;;;;;5059122;28;20044;-88
2023/08/19 03:44:56;;;;;;;23.42;20.67;;;23.10;99.90;;;;;;5047181;28;20101;-88
2023/08/19 03:47:22;;;;;;;22.35;20.05;;;23.60;99.90;;;;;;5026271;28;20047;-88
2023/08/19 03:49:48;;;;;;;23.15;20.67;;;23.40;99.90;;;;;;5042211;28;20097;-87
2023/08/19 03:52:14;;;;;;;23.60;21.20;;;23.30;99.90;;;;;;5043858;28;20043;-88
2023/08/19 03:54:40;;;;;;;22.63;20.33;;;23.20;99.90;;;;;;5056693;28;20039;-89
2023/08/19 03:57:05;;;;;;;22.60;20.23;;;23.50;99.90;;;;;;5033056;28;20028;-87
2023/08/19 03:59:32;;;;;;;22.33;19.83;;;23.40;99.90;;;;;;5055117;28;20123;-88
2023/08/19 04:01:58;;;;;;;22.65;20.42;;;23.50;99.90;;;;;;5074595;28;20096;-88
2023/08/19 04:04:23;;;;;;;23.73;21.30;;;23.60;99.90;;;;;;5075412;28;20436;-89
2023/08/19 04:06:49;;;;;;;21.13;18.75;;;23.00;99.90;;;;;;5075084;28;20043;-88
2023/08/19 04:09:15;;;;;;;23.13;20.63;;;23.00;99.90;;;;;;5042394;28;20368;-88
2023/08/19 04:11:40;;;;;;;22.20;20.00;;;23.00;99.90;;;;;;5057136;28;20037;-88
2023/08/19 04:14:06;;;;;;;21.35;19.33;;;23.00;99.90;;;;;;5017083;28;20044;-87
2023/08/19 04:16:32;;;;;;;22.50;20.20;;;23.10;99.90;;;;;;5045295;28;20098;-87
2023/08/19 04:18:58;;;;;;;21.75;19.58;;;23.00;99.90;;;;;;5034809;28;20396;-89
2023/08/19 04:21:24;;;;;;;22.10;19.65;;;23.40;99.90;;;;;;5056270;28;21103;-87
2023/08/19 04:23:50;;;;;;;20.52;18.38;;;23.00;99.90;;;;;;5056755;28;20048;-87
2023/08/19 04:26:16;;;;;;;21.55;19.35;;;23.50;99.90;;;;;;5055518;28;20038;-87
2023/08/19 04:28:42;;;;;;;22.58;20.33;;;23.00;99.90;;;;;;5056117;28;20484;-87
2023/08/19 04:31:09;;;;;;;21.48;19.38;;;23.50;99.90;;;;;;5057037;28;20051;-86
2023/08/19 04:33:35;;;;;;;22.17;19.98;;;23.40;99.90;;;;;;5057148;28;22102;-87
2023/08/19 04:36:02;;;;;;;22.45;20.27;;;23.30;99.90;;;;;;5024002;28;20082;-88
2023/08/19 04:38:28;;;;;;;22.30;20.00;;;23.10;99.90;;;;;;5056388;28;20388;-87
2023/08/19 04:40:54;;;;;;;21.13;18.92;;;23.50;99.90;;;;;;5054651;28;20123;-88
2023/08/19 04:43:20;;;;;;;20.95;18.85;;;23.30;99.90;;;;;;5057478;28;20032;-87
2023/08/19 04:45:46;;;;;;;22.55;20.33;;;23.50;99.90;;;;;;5054616;28;20040;-87
2023/08/19 04:48:12;;;;;;;20.55;18.45;;;23.60;99.90;;;;;;5035434;28;20044;-88
2023/08/19 04:50:38;;;;;;;21.80;19.48;;;23.60;99.90;;;;;;5020185;28;20481;-87
2023/08/19 04:53:03;;;;;;;21.02;18.98;;;23.60;99.90;;;;;;5013866;28;20035;-86
2023/08/19 04:55:30;;;;;;;19.05;17.13;;;23.60;99.90;;;;;;5040255;28;20043;-88
2023/08/19 04:57:56;;;;;;;22.15;19.85;;;23.60;99.90;;;;;;5072871;28;20028;-90
2023/08/19 05:00:22;;;;;;;23.77;21.38;;;23.20;99.90;;;;;;5052842;28;20124;-89
2023/08/19 05:02:49;;;;;;;21.58;19.40;;;23.50;99.90;;;;;;5035258;28;20113;-89
2023/08/19 05:05:15;;;;;;;22.77;20.38;;;23.30;99.90;;;;;;5055620;28;20032;-90
2023/08/19 05:07:41;;;;;;;21.98;19.67;;;23.20;99.90;;;;;;5041591;28;20638;-89
2023/08/19 05:10:08;;;;;;;20.40;18.38;;;23.30;99.90;;;;;;5035378;28;20047;-89
2023/08/19 05:12:35;;;;;;;22.90;20.35;;;23.50;99.90;;;;;;5055587;28;20040;-88
2023/08/19 05:15:01;;;;;;;22.10;19.90;;;23.40;99.90;;;;;;5039778;28;20050;-90
2023/08/19 05:17:26;;;;;;;21.85;19.55;;;23.40;99.90;;;;;;5054322;28;20037;-90
2023/08/19 05:19:54;;;;;;;22.42;19.88;;;23.60;99.90;;;;;;5057552;28;20051;-89
2023/08/19 05:22:22;;;;;;;22.05;19.27;;;23.50;99.90;;;;;;5057765;28;20047;-90
2023/08/19 05:24:49;;;;;;;20.63;18.52;;;23.90;99.90;;;;;;5058124;28;20395;-88
2023/08/19 05:27:14;;;;;;;20.15;18.23;;;23.60;99.90;;;;;;5057812;28;20533;-88
2023/08/19 05:29:40;;;;;;;22.65;20.35;;;23.60;99.90;;;;;;5073999;28;20032;-88
2023/08/19 05:32:06;;;;;;;19.48;17.50;;;23.90;99.90;;;;;;5056408;28;20072;-87
2023/08/19 05:34:33;;;;;;;19.83;17.90;;;24.20;99.90;;;;;;5057929;28;20036;-89
2023/08/19 05:36:59;;;;;;;18.55;16.75;;;24.00;99.90;;;;;;5041112;28;20025;-88
2023/08/19 05:39:25;;;;;;;19.98;17.88;;;23.70;99.90;;;;;;5040670;28;20042;-88
2023/08/19 05:41:51;;;;;;;19.80;17.75;;;24.20;99.90;;;;;;5056893;28;20044;-88
2023/08/19 05:44:16;;;;;;;18.50;16.65;;;23.80;99.90;;;;;;5058261;28;20378;-88
2023/08/19 05:46:42;;;;;;;19.17;16.73;;;24.10;99.90;;;;;;5025595;28;20033;-87
2023/08/19 05:49:08;;;;;;;18.15;16.25;;;23.80;99.90;;;;;;5042227;28;20484;-88
2023/08/19 05:51:34;;;;;;;21.08;17.88;;;;;;;;;;5043002;28;20831;-88
2023/08/19 05:54:02;;;;;;;18.35;16.45;;;23.90;99.90;;;;;;5047598;28;20119;-88
2023/08/19 05:56:30;;;;;;;18.48;16.63;;;24.40;99.90;;;;;;5061736;28;20028;-89
2023/08/19 05:58:56;;;;;;;16.23;14.60;;;24.20;99.90;;;;;;5040710;28;20507;-88
2023/08/19 06:01:22;;;;;;;17.50;15.55;;;24.30;99.90;;;;;;5040749;28;20091;-89
2023/08/19 06:03:48;;;;;;;16.45;14.85;;;24.30;99.90;;;;;;5024038;28;20044;-88
2023/08/19 06:06:13;;;;;;;14.50;13.07;;;24.40;99.90;;;;;;5060566;28;20042;-89
2023/08/19 06:08:39;;;;;;;15.75;14.15;;;24.20;99.90;;;;;;5057912;28;20047;-88
2023/08/19 06:11:06;;;;;;;14.60;13.15;;;24.40;99.90;;;;;;5030794;28;20503;-90
2023/08/19 06:13:33;;;;;;;15.48;13.82;;;24.40;99.90;;;;;;5051690;28;20084;-89
2023/08/19 06:16:00;;;;;;;13.70;12.40;;;24.80;99.90;;;;;;5040622;28;20041;-88
2023/08/19 06:18:26;;;;;;;14.40;13.00;;;24.60;99.90;;;;;;5054608;28;20119;-88
2023/08/19 06:20:52;;;;;;;16.33;14.02;;;24.90;99.90;;;;;;5040011;28;20128;-90
2023/08/19 06:23:19;;;;;;;13.25;11.80;;;22.10;99.90;;;;;;5041186;28;20036;-88
2023/08/19 06:25:49;;;;;;;14.15;12.75;;;24.90;99.90;;;;;;5039750;28;20476;-88
2023/08/19 06:28:15;;;;;;;13.45;11.45;;;24.70;99.90;;;;;;5045345;28;20037;-88
2023/08/19 06:30:41;;;;;;;14.00;12.40;;;24.90;99.90;;;;;;5042140;28;20133;-89
2023/08/19 06:33:08;;;;;;;13.25;11.95;;;25.10;99.90;;;;;;5031208;28;20401;-89
2023/08/19 06:35:35;;;;;;;13.88;11.50;;;24.90;99.90;;;;;;5005256;28;20751;-90
2023/08/19 06:38:07;;;;;;;12.57;11.13;;;25.30;99.90;;;;;;5028424;28;20098;-89
2023/08/19 06:40:37;;;;;;;13.60;12.20;;;25.30;99.90;;;;;;5035239;28;20127;-89
2023/08/19 06:43:06;;;;;;;13.10;11.75;;;25.10;99.90;;;;;;5023903;28;20385;-88
2023/08/19 06:45:33;;;;;;;13.32;11.43;;;25.10;99.90;;;;;;5037406;28;20044;-89
2023/08/19 06:48:01;;;;;;;12.00;10.68;;;25.40;99.90;;;;;;5024758;28;20446;-88
2023/08/19 06:50:27;;;;;;;13.10;11.70;;;25.30;99.90;;;;;;5040817;28;20036;-89
2023/08/19 06:52:53;;;;;;;12.85;11.43;;;25.30;99.90;;;;;;5006253;28;20041;-89
2023/08/19 06:55:19;;;;;;;12.10;10.82;;;25.20;99.90;;;;;;4996220;28;20064;-89
2023/08/19 06:58:01;;;;;;;12.43;11.13;;;25.10;99.90;;;;;;5016779;28;20044;-89
2023/08/19 07:00:27;;;;;;;13.60;11.30;;;25.00;99.90;;;;;;5034856;28;20110;-90
2023/08/19 07:02:53;;;;;;;11.25;9.88;;;25.00;99.90;;;;;;5040359;28;20033;-90
2023/08/19 07:05:20;;;;;;;11.00;9.60;;;25.30;99.90;;;;;;5038581;28;20040;-89
2023/08/19 07:07:50;;;;;;;11.90;10.70;;;25.10;99.90;;;;;;5007567;28;20048;-90
2023/08/19 07:10:20;;;;;;;10.90;9.63;;;25.10;99.90;;;;;;5036620;28;20037;-87
2023/08/19 07:12:46;;;;;;;11.93;10.73;;;25.00;99.90;;;;;;5039928;28;20047;-88
2023/08/19 07:15:13;;;;;;;11.80;10.60;;;25.20;99.90;;;;;;5053970;28;20127;-87
2023/08/19 07:17:46;;;;;;;11.77;10.60;;;25.10;99.90;;;;;;5040636;28;20051;-88
2023/08/19 07:20:20;;;;;;;11.73;10.63;;;25.10;99.90;;;;;;5056519;28;20377;-90
2023/08/19 07:22:47;;;;;;;;;;;24.10;99.90;;;;;;5072955;28;20615;-89
2023/08/19 07:25:13;;;;;;;12.93;10.65;;;25.00;99.90;;;;;;5026686;28;19921;-89
2023/08/19 07:27:45;;;;;;;11.15;9.93;;;25.00;99.90;;;;;;5057027;28;20052;-90
2023/08/19 07:30:12;;;;;;;12.02;10.85;;;25.40;99.90;;;;;;5050716;28;20044;-90
2023/08/19 07:32:39;;;;;;;10.65;9.65;;;25.40;99.90;;;;;;5064578;28;20036;-90
2023/08/19 07:35:05;;;;;;;10.68;9.60;;;25.20;99.90;;;;;;5053882;28;20044;-88
2023/08/19 07:37:33;;;;;;;11.18;9.98;;;25.40;99.90;;;;;;5022564;28;20045;-88
2023/08/19 07:39:59;;;;;;;12.13;10.35;;;25.50;99.90;;;;;;5021565;28;20041;-90
2023/08/19 07:42:27;;;;;;;11.55;10.45;;;25.30;99.90;;;;;;5032101;28;20047;-89
2023/08/19 07:44:53;;;;;;;11.82;10.60;;;25.40;99.90;;;;;;5035523;28;20085;-88
2023/08/19 07:47:19;;;;;;;11.88;10.63;;;25.50;99.90;;;;;;5035788;28;20072;-88
2023/08/19 07:49:44;;;;;;;11.73;10.52;;;25.50;99.90;;;;;;5037127;28;20094;-90
2023/08/19 07:52:10;;;;;;;10.07;9.07;;;25.90;99.90;;;;;;5037119;28;20453;-87
2023/08/19 07:54:36;;;;;;;11.35;9.88;;;25.90;99.90;;;;;;5042848;28;20033;-89
2023/08/19 07:57:02;;;;;;;11.25;9.85;;;25.70;99.90;;;;;;5032651;28;20510;-88
2023/08/19 07:59:28;;;;;;;11.90;9.90;;;26.00;99.90;;;;;;5042048;28;20066;-88
2023/08/19 08:01:57;;;;;;;10.68;9.68;;;26.10;99.90;;;;;;5059085;28;20090;-88
2023/08/19 08:04:22;;;;;;;10.10;9.10;;;25.80;99.90;;;;;;5070095;28;20037;-89
2023/08/19 08:06:51;;;;;;;11.63;10.43;;;26.20;99.90;;;;;;5038602;28;20099;-88
2023/08/19 08:09:19;;;;;;;9.93;8.68;;;26.20;99.90;;;;;;5056232;28;20087;-88
2023/08/19 08:11:46;;;;;;;10.80;9.80;;;26.20;99.90;;;;;;5062208;28;20440;-87
2023/08/19 08:14:12;;;;;;;10.27;9.27;;;26.20;99.90;;;;;;5051642;28;20124;-87
2023/08/19 08:16:37;;;;;;;10.13;9.13;;;26.20;99.90;;;;;;5060620;28;20041;-89
2023/08/19 08:19:03;;;;;;;12.73;8.48;;;26.10;99.90;;;;;;5045206;28;20045;-87
2023/08/19 08:21:29;;;;;;;9.80;8.80;;;26.30;99.90;;;;;;5039028;28;20037;-88
2023/08/19 08:23:55;;;;;;;9.10;8.32;;;26.30;99.90;;;;;;5026645;28;20090;-89
2023/08/19 08:26:22;;;;;;;10.30;9.15;;;26.30;99.90;;;;;;5051437;28;20040;-88
2023/08/19 08:28:51;;;;;;;9.38;8.52;;;26.50;99.90;;;;;;5035696;28;20101;-89
2023/08/19 08:31:17;;;;;;;11.02;8.07;;;26.40;99.90;;;;;;5040855;28;20064;-90
2023/08/19 08:33:43;;;;;;;10.77;8.60;;;26.60;99.90;;;;;;5037325;28;20041;-89
2023/08/19 08:36:08;;;;;;;9.20;8.20;;;26.60;99.90;;;;;;5019617;28;20075;-88
2023/08/19 08:38:36;;;;;;;8.05;7.22;;;26.60;99.90;;;;;;5045884;28;20037;-89
2023/08/19 08:41:03;;;;;;;9.02;8.18;;;26.70;99.90;;;;;;5020167;28;20041;-89
2023/08/19 08:43:33;;;;;;;10.05;7.72;;;26.70;99.90;;;;;;5035320;28;20047;-89
2023/08/19 08:46:03;;;;;;;9.00;8.10;;;26.70;99.90;;;;;;5052327;28;20178;-89
2023/08/19 08:48:32;;;;;;;9.23;7.95;;;26.90;99.90;;;;;;5033815;28;20121;-89
2023/08/19 08:50:59;;;;;;;8.80;7.90;;;26.90;99.90;;;;;;5041849;28;20110;-89
2023/08/19 08:53:29;;;;;;;7.72;7.03;;;26.90;99.90;;;;;;5021884;28;20040;-87
2023/08/19 08:55:56;;;;;;;8.43;7.65;;;26.80;99.90;;;;;;5038971;28;20052;-86
2023/08/19 08:58:22;;;;;;;8.18;7.25;;;26.30;99.90;;;;;;5046602;28;20139;-87
2023/08/19 09:00:48;;;;;;;8.35;6.95;;;27.20;99.90;;;;;;5054392;28;20492;-86
2023/08/19 09:03:20;;;;;;;7.68;6.90;;;27.40;99.90;;;;;;5054546;28;20484;-86
2023/08/19 09:05:51;;;;;;;8.07;6.95;;;27.50;99.90;;;;;;5052914;28;20044;-88
2023/08/19 09:08:22;;;;;;;7.60;6.80;;;27.60;99.90;;;;;;5031723;28;20025;-88
2023/08/19 09:10:49;;;;;;;7.78;7.00;;;27.70;99.90;;;;;;5054340;28;20714;-87
2023/08/19 09:13:21;;;;;;;7.43;6.57;;;27.90;99.90;;;;;;5054366;28;20032;-88
2023/08/19 09:15:47;;;;;;;10.52;7.70;;;27.90;99.90;;;;;;5037323;28;20044;-88
2023/08/19 09:18:13;;;;;;;7.97;6.78;;;27.90;99.90;;;;;;5018201;28;20103;-89
2023/08/19 09:20:40;;;;;;;8.10;7.30;;;28.10;99.90;;;;;;4999802;28;20052;-89
2023/08/19 09:23:08;;;;;;;9.25;6.93;;;28.20;99.90;;;;;;5001537;28;20040;-88
2023/08/19 09:25:35;;;;;;;7.32;6.72;;;28.40;99.90;;;;;;5034634;28;20102;-89
2023/08/19 09:28:01;;;;;;;7.35;6.65;;;28.70;99.90;;;;;;5035580;28;20044;-89
2023/08/19 09:30:34;;;;;;;8.18;6.40;;;29.20;99.90;;;;;;5031058;28;20037;-87
2023/08/19 09:33:00;;;;;;;7.15;6.45;;;29.20;99.90;;;;;;5053998;28;20074;-89
2023/08/19 09:35:36;;;;;;;9.60;6.32;;;29.30;99.90;;;;;;5037360;28;20040;-86
2023/08/19 09:38:02;;;;;;;7.25;6.38;;;29.20;99.90;;;;;;5034410;28;20041;-89
2023/08/19 09:40:28;;;;;;;7.18;6.20;;;29.10;99.90;;;;;;5049464;28;20036;-90
2023/08/19 09:42:58;;;;;;;8.20;6.18;;;29.10;99.90;;;;;;5025858;28;20044;-86
2023/08/19 09:45:28;;;;;;;6.60;6.00;;;29.10;99.90;;;;;;5036912;28;20039;-88
2023/08/19 09:47:54;;;;;;;7.65;5.82;;;29.10;99.90;;;;;;5010512;28;20401;-88
2023/08/19 09:50:22;;;;;;;6.43;5.82;;;29.10;99.90;;;;;;5005058;28;20029;-89
2023/08/19 09:52:55;;;;;;;6.72;5.70;;;28.10;99.90;;;;;;5026526;28;20045;-87
2023/08/19 09:55:26;;;;;;;7.90;6.47;;;29.20;99.90;;;;;;5012766;28;20084;-87
2023/08/19 09:57:53;;;;;;;7.13;5.88;;;29.10;99.90;;;;;;5018108;28;20388;-87
2023/08/19 10:00:19;;;;;;;7.90;5.80;;;29.10;99.90;;;;;;5002949;28;20056;-88
2023/08/19 10:02:44;;;;;;;7.10;5.90;;;29.20;99.90;;;;;;5035469;28;20048;-87
2023/08/19 10:05:10;;;;;;;8.63;5.57;;;29.20;99.90;;;;;;5037579;28;20040;-86
2023/08/19 10:07:40;;;;;;;5.70;5.03;;;29.30;99.90;;;;;;5034484;28;20104;-87
2023/08/19 10:10:11;;;;;;;8.35;5.72;;;29.30;99.90;;;;;;5031224;28;20643;-87
2023/08/19 10:12:40;;;;;;;7.60;5.93;;;29.40;99.90;;;;;;5027002;28;20060;-86
2023/08/19 10:15:08;;;;;;;9.00;5.47;;;29.40;99.90;;;;;;5027677;28;20049;-87
2023/08/19 10:17:36;;;;;;;5.93;5.43;;;29.40;99.90;;;;;;5031871;28;20053;-85
2023/08/19 10:20:11;;;;;;;6.20;5.60;;;29.40;99.90;;;;;;5037062;28;20040;-88
2023/08/19 10:22:41;;;;;;;6.38;5.72;;;29.30;99.90;;;;;;5045926;28;20036;-88
2023/08/19 10:25:09;;;;;;;7.13;5.93;;;29.10;99.90;;;;;;5067958;28;20471;-88
2023/08/19 10:27:35;;;;;;;6.57;5.60;;;28.80;99.90;;;;;;5048013;28;20067;-88
2023/08/19 10:30:24;;;;;;;7.63;5.70;;;28.70;99.90;;;;;;5028992;28;20044;-88
2023/08/19 10:32:50;;;;;;;7.30;5.55;;;28.50;99.90;;;;;;5049449;28;20037;-88
2023/08/19 10:35:17;;;;;;;8.30;5.97;;;28.90;99.90;;;;;;5033927;28;20112;-88
2023/08/19 10:37:48;;;;;;;7.30;5.95;;;28.30;99.90;;;;;;5043331;28;20040;-88
2023/08/19 10:40:24;;;;;;;6.57;5.97;;;28.10;99.90;;;;;;5029723;28;20032;-88
2023/08/19 10:43:00;;;;;;;6.95;6.25;;;28.10;99.90;;;;;;5063889;28;20041;-88
2023/08/19 10:45:33;;;;;;;7.15;6.45;;;27.90;99.90;;;;;;5056379;28;20392;-89
2023/08/19 10:47:59;;;;;;;7.30;6.60;;;27.80;99.90;;;;;;5049171;28;20041;-89
2023/08/19 10:50:26;;;;;;;8.02;6.80;;;27.90;99.90;;;;;;5049810;28;20036;-88
2023/08/19 10:53:01;;;;;;;7.03;6.32;;;27.90;99.90;;;;;;5042478;28;20413;-89
2023/08/19 10:55:27;;;;;;;8.27;7.47;;;28.00;99.90;;;;;;5032693;28;20392;-89
2023/08/19 10:57:53;;;;;;;9.70;8.32;;;28.10;99.90;;;;;;5016591;28;20036;-90
2023/08/19 11:00:23;;;;;;;11.00;7.78;;;28.20;99.90;;;;;;5044532;28;20072;-89
2023/08/19 11:02:50;;;;;;;8.73;7.40;;;28.30;99.90;;;;;;5034382;28;20444;-89
2023/08/19 11:05:26;;;;;;;8.13;7.32;;;28.40;99.90;;;;;;5034847;28;20033;-89
2023/08/19 11:07:52;;;;;;;8.43;7.00;;;28.30;99.90;;;;;;5036990;28;20132;-89
2023/08/19 11:10:19;;;;;;;8.80;7.45;;;28.40;99.90;;;;;;5042897;28;20044;-91
2023/08/19 11:12:45;;;;;;;9.18;7.65;;;28.40;99.90;;;;;;5044731;28;20037;-90
2023/08/19 11:15:11;;;;;;;8.27;7.47;;;28.20;99.90;;;;;;5056609;28;20386;-90
2023/08/19 11:17:38;;;;;;;8.90;7.88;;;28.10;99.90;;;;;;5035768;28;20041;-91
2023/08/19 11:20:13;;;;;;;8.50;7.50;;;27.90;99.90;;;;;;5044202;28;20485;-89
2023/08/19 11:22:43;;;;;;;8.30;7.45;;;27.80;99.90;;;;;;5034134;28;20106;-89
2023/08/19 11:25:09;;;;;;;10.15;7.93;;;27.30;99.90;;;;;;5048600;28;20040;-89
2023/08/19 11:27:35;;;;;;;9.95;7.85;;;27.80;99.90;;;;;;5020739;28;20037;-91
2023/08/19 11:30:03;;;;;;;11.25;8.20;;;27.80;99.90;;;;;;5026132;28;20619;-90
2023/08/19 11:32:29;;;;;;;9.40;8.38;;;27.90;99.90;;;;;;5056915;28;20044;-90
2023/08/19 11:35:01;;;;;;;9.73;7.82;;;28.30;99.90;;;;;;5041690;28;20032;-89
2023/08/19 11:37:30;;;;;;;9.07;8.10;;;28.40;99.90;;;;;;5060674;28;20033;-89
2023/08/19 11:39:56;;;;;;;11.38;8.20;;;27.90;99.90;;;;;;5036724;28;20048;-89
2023/08/19 11:42:25;;;;;;;11.70;8.55;;;29.20;99.90;;;;;;5053161;28;20044;-91
2023/08/19 11:44:51;;;;;;;10.20;7.75;;;29.40;99.90;;;;;;5073294;28;20071;-90
2023/08/19 11:47:17;;;;;;;11.85;8.70;;;29.40;99.90;;;;;;5019515;28;20545;-90
2023/08/19 11:49:44;;;;;;;11.13;9.13;;;29.60;99.90;;;;;;5039697;28;20042;-89
2023/08/19 11:52:17;;;;;;;10.15;9.15;;;29.50;99.90;;;;;;5050619;28;20048;-90
2023/08/19 11:55:03;;;;;;;9.50;8.50;;;29.50;99.90;;;;;;5040230;28;20064;-91
2023/08/19 11:57:36;;;;;;;11.25;8.52;;;29.40;99.90;;;;;;5055318;28;20041;-90
2023/08/19 12:00:13;;;;;;;10.27;9.27;;;29.50;99.90;;;;;;5056563;28;20397;-90
2023/08/19 12:02:40;;;;;;;11.55;10.35;;;29.40;99.90;;;;;;5035369;28;20721;-89
2023/08/19 12:05:07;;;;;;;11.35;9.93;;;29.30;99.90;;;;;;5036194;28;20508;-90
2023/08/19 12:07:34;;;;;;;12.10;10.18;;;29.20;99.90;;;;;;5050680;28;20047;-90
2023/08/19 12:10:00;;;;;;;10.75;9.65;;;29.40;99.90;;;;;;5039153;28;20036;-90
2023/08/19 12:12:28;;;;;;;12.82;11.30;;;29.50;99.90;;;;;;5022432;28;20117;-89
2023/08/19 12:14:54;;;;;;;11.18;9.65;;;29.50;99.90;;;;;;5056106;28;20053;-90
2023/08/19 12:17:21;;;;;;;10.80;9.70;;;29.70;99.90;;;;;;5022179;28;20127;-89
2023/08/19 12:19:47;;;;;;;12.48;11.27;;;29.70;99.90;;;;;;5039184;28;20106;-89
2023/08/19 12:22:13;;;;;;;12.30;10.55;;;29.70;99.90;;;;;;5044387;28;20039;-89
2023/08/19 12:24:41;;;;;;;11.57;10.38;;;30.00;99.90;;;;;;5037867;28;20074;-89
2023/08/19 12:27:08;;;;;;;15.02;11.32;;;29.80;99.90;;;;;;5019269;28;20048;-88
2023/08/19 12:29:35;;;;;;;13.57;12.25;;;29.80;99.90;;;;;;5002510;28;20037;-88
2023/08/19 12:32:01;;;;;;;15.00;13.50;;;29.70;99.90;;;;;;5041974;28;20053;-90
2023/08/19 12:34:27;;;;;;;14.50;13.10;;;29.60;99.90;;;;;;5018658;28;20036;-90